createdAt,value
2022-12-29T00:00:25.022Z,2.10
2022-12-29T00:02:52.815Z,2.47
2022-12-29T00:05:20.405Z,2.30
2022-12-29T00:07:49.257Z,2.10
2022-12-29T00:10:16.770Z,2.67
2022-12-29T00:13:04.511Z,1.80
2022-12-29T00:15:41.172Z,2.60
2022-12-29T00:18:09.704Z,3.23
2022-12-29T00:20:55.960Z,1.97
2022-12-29T00:23:42.346Z,1.70
2022-12-29T00:26:32.591Z,2.40
2022-12-29T00:29:18.444Z,2.03
2022-12-29T00:32:03.388Z,1.80
2022-12-29T00:34:48.240Z,2.10
2022-12-29T00:37:15.736Z,1.70
2022-12-29T00:40:02.062Z,1.73
2022-12-29T00:42:47.339Z,2.63
2022-12-29T00:45:15.895Z,2.13
2022-12-29T00:47:45.607Z,1.73
2022-12-29T00:50:12.212Z,2.10
2022-12-29T00:52:39.685Z,2.60
2022-12-29T00:55:09.282Z,1.50
2022-12-29T00:57:38.583Z,2.10
2022-12-29T01:00:07.186Z,3.60
2022-12-29T01:02:35.070Z,2.00
2022-12-29T01:05:03.433Z,1.73
2022-12-29T01:07:30.958Z,1.70
2022-12-29T01:10:12.549Z,1.57
2022-12-29T01:12:45.849Z,1.80
2022-12-29T01:15:15.648Z,1.60
2022-12-29T01:17:43.537Z,1.60
2022-12-29T01:20:11.957Z,1.43
2022-12-29T01:22:39.691Z,3.23
2022-12-29T01:25:08.337Z,1.50
2022-12-29T01:27:36.095Z,1.47
2022-12-29T01:30:06.094Z,1.53
2022-12-29T01:32:33.630Z,1.50
2022-12-29T01:35:01.137Z,1.87
2022-12-29T01:37:28.638Z,1.40
2022-12-29T01:39:56.110Z,3.00
2022-12-29T01:42:26.227Z,1.87
2022-12-29T01:44:56.161Z,1.23
2022-12-29T01:47:32.912Z,1.70
2022-12-29T01:50:05.183Z,1.40
2022-12-29T01:52:34.772Z,1.30
2022-12-29T01:55:04.771Z,1.20
2022-12-29T01:57:33.787Z,1.30
2022-12-29T02:00:05.582Z,1.30
2022-12-29T02:02:42.293Z,1.30
2022-12-29T02:05:13.654Z,1.20
2022-12-29T02:07:41.517Z,1.23
2022-12-29T02:10:11.552Z,1.83
2022-12-29T02:12:39.118Z,1.40
2022-12-29T02:15:08.312Z,1.23
2022-12-29T02:17:48.895Z,1.27
2022-12-29T02:39:34.892Z,1.30
2022-12-29T02:45:07.862Z,1.00
2022-12-29T02:47:38.733Z,1.00
2022-12-29T02:50:10.849Z,1.23
2022-12-29T02:52:40.842Z,0.97
2022-12-29T02:55:11.484Z,1.23
2022-12-29T02:57:39.439Z,1.10
2022-12-29T03:00:11.609Z,1.17
2022-12-29T03:03:10.532Z,1.10
2022-12-29T03:05:57.605Z,1.20
2022-12-29T03:08:33.713Z,1.17
2022-12-29T03:11:04.906Z,1.53
2022-12-29T03:13:55.774Z,2.07
2022-12-29T03:16:27.019Z,1.10
2022-12-29T03:18:59.946Z,1.10
2022-12-29T03:21:47.582Z,1.00
2022-12-29T03:24:17.968Z,0.93
2022-12-29T03:26:49.873Z,1.10
2022-12-29T03:29:20.311Z,1.23
2022-12-29T03:31:50.384Z,1.23
2022-12-29T03:34:20.345Z,1.40
2022-12-29T03:36:50.930Z,1.33
2022-12-29T03:39:20.494Z,1.27
2022-12-29T03:41:52.734Z,1.40
2022-12-29T03:44:20.459Z,1.60
2022-12-29T03:46:48.108Z,1.10
2022-12-29T03:49:16.004Z,1.50
2022-12-29T03:51:45.875Z,1.80
2022-12-29T03:54:13.913Z,1.40
2022-12-29T03:56:42.007Z,1.60
2022-12-29T03:59:11.039Z,1.90
2022-12-29T04:01:41.438Z,1.40
2022-12-29T04:04:09.151Z,1.77
2022-12-29T04:06:37.051Z,1.60
2022-12-29T04:09:07.814Z,1.70
2022-12-29T04:11:40.886Z,1.57
2022-12-29T04:14:08.619Z,1.70
2022-12-29T04:16:39.607Z,1.80
2022-12-29T04:19:08.267Z,1.97
2022-12-29T04:21:37.084Z,2.17
2022-12-29T04:24:07.363Z,2.00
2022-12-29T04:26:39.068Z,2.60
2022-12-29T04:29:25.018Z,3.53
2022-12-29T04:32:17.006Z,2.30
2022-12-29T04:34:49.786Z,2.17
2022-12-29T04:37:17.373Z,2.13
2022-12-29T04:39:45.003Z,1.70
2022-12-29T04:42:13.005Z,2.47
2022-12-29T04:44:45.038Z,1.93
2022-12-29T04:47:25.306Z,2.03
2022-12-29T04:50:31.303Z,2.00
2022-12-29T04:53:34.302Z,1.80
2022-12-29T04:56:02.427Z,2.00
2022-12-29T04:58:30.396Z,1.90
2022-12-29T05:00:59.731Z,5.07
2022-12-29T05:03:32.092Z,1.90
2022-12-29T05:06:00.194Z,1.93
2022-12-29T05:08:28.805Z,2.00
2022-12-29T05:10:59.811Z,2.00
2022-12-29T05:13:28.062Z,2.00
2022-12-29T05:15:56.175Z,2.07
2022-12-29T05:18:25.079Z,1.60
2022-12-29T05:20:55.131Z,1.70
2022-12-29T05:23:24.639Z,1.50
2022-12-29T05:25:57.902Z,1.50
2022-12-29T05:28:45.620Z,1.50
2022-12-29T05:31:18.235Z,1.70
2022-12-29T05:33:46.139Z,1.70
2022-12-29T05:36:17.652Z,1.60
2022-12-29T05:38:50.470Z,1.70
2022-12-29T05:41:19.415Z,1.57
2022-12-29T05:44:05.891Z,1.70
2022-12-29T05:46:51.239Z,3.30
2022-12-29T05:49:25.309Z,1.80
2022-12-29T05:52:14.539Z,1.70
2022-12-29T05:54:42.280Z,1.60
2022-12-29T05:57:13.623Z,2.03
2022-12-29T05:59:44.191Z,1.60
2022-12-29T06:02:12.361Z,1.50
2022-12-29T06:04:40.061Z,1.60
2022-12-29T06:07:08.357Z,1.63
2022-12-29T06:09:43.592Z,1.60
2022-12-29T06:12:11.712Z,1.57
2022-12-29T06:14:41.103Z,1.60
2022-12-29T06:17:08.647Z,1.70
2022-12-29T06:19:36.210Z,1.60
2022-12-29T06:22:03.862Z,1.70
2022-12-29T06:24:34.404Z,1.50
2022-12-29T06:27:03.370Z,1.50
2022-12-29T06:29:31.070Z,1.60
2022-12-29T06:31:59.380Z,1.60
2022-12-29T06:34:27.690Z,1.70
2022-12-29T06:36:55.313Z,1.90
2022-12-29T06:39:22.841Z,3.83
2022-12-29T06:42:03.003Z,1.73
2022-12-29T06:44:48.926Z,1.60
2022-12-29T06:47:16.440Z,2.07
2022-12-29T06:49:44.036Z,2.40
2022-12-29T06:52:13.211Z,2.10
2022-12-29T06:54:41.132Z,3.40
2022-12-29T06:57:10.066Z,2.10
2022-12-29T06:59:37.722Z,3.00
2022-12-29T07:02:05.477Z,2.07
2022-12-29T07:04:33.148Z,2.17
2022-12-29T07:07:01.055Z,2.03
2022-12-29T07:09:29.297Z,1.80
2022-12-29T07:11:56.943Z,1.80
2022-12-29T07:14:25.816Z,2.67
2022-12-29T07:16:53.463Z,2.00
2022-12-29T07:19:21.304Z,2.10
2022-12-29T07:21:49.062Z,2.27
2022-12-29T07:24:16.710Z,4.30
2022-12-29T07:26:44.454Z,2.30
2022-12-29T07:29:11.977Z,2.00
2022-12-29T07:59:46.854Z,5.60
2022-12-29T08:02:14.585Z,3.83
2022-12-29T08:04:42.280Z,4.97
2022-12-29T08:07:09.810Z,4.00
2022-12-29T08:09:37.365Z,2.20
2022-12-29T08:12:05.281Z,4.00
2022-12-29T08:14:32.896Z,5.57
2022-12-29T08:17:01.832Z,4.87
2022-12-29T08:19:29.385Z,3.93
2022-12-29T08:21:56.947Z,3.17
2022-12-29T08:24:24.601Z,5.00
2022-12-29T08:26:52.123Z,5.50
2022-12-29T08:29:20.446Z,3.97
2022-12-29T08:46:47.121Z,4.27
2022-12-29T09:17:57.605Z,4.07
2022-12-29T09:20:25.138Z,3.30
2022-12-29T09:22:52.897Z,4.00
2022-12-29T09:25:20.775Z,3.87
2022-12-29T09:27:49.109Z,6.10
2022-12-29T09:30:16.904Z,3.50
2022-12-29T09:32:45.551Z,5.00
2022-12-29T09:35:16.420Z,9.30
2022-12-29T09:37:44.555Z,6.17
2022-12-29T09:40:24.639Z,3.43
2022-12-29T09:42:57.717Z,6.67
2022-12-29T09:45:31.522Z,5.07
2022-12-29T09:47:59.138Z,5.60
2022-12-29T09:50:30.773Z,5.27
2022-12-29T09:53:02.795Z,5.07
2022-12-29T09:55:37.568Z,6.30
2022-12-29T09:58:08.148Z,3.50
2022-12-29T10:00:39.006Z,8.63
2022-12-29T10:03:13.180Z,3.87
2022-12-29T10:05:48.391Z,6.73
2022-12-29T10:08:32.107Z,7.57
2022-12-29T10:11:06.633Z,4.90
2022-12-29T10:13:43.818Z,10.33
2022-12-29T10:16:15.703Z,10.10
2022-12-29T10:19:07.499Z,5.57
2022-12-29T10:21:45.445Z,4.77
2022-12-29T10:24:14.533Z,5.70
2022-12-29T10:26:43.688Z,3.00
2022-12-29T10:29:21.510Z,9.70
2022-12-29T10:31:52.478Z,5.10
2022-12-29T10:34:23.269Z,5.83
2022-12-29T10:36:56.905Z,4.93
2022-12-29T10:39:29.633Z,5.13
2022-12-29T10:42:01.205Z,6.73
2022-12-29T10:44:31.803Z,6.63
2022-12-29T10:47:01.655Z,4.73
2022-12-29T10:49:30.642Z,7.27
2022-12-29T10:52:02.189Z,5.77
2022-12-29T10:54:33.658Z,6.83
2022-12-29T10:57:04.533Z,4.37
2022-12-29T10:59:33.961Z,6.93
2022-12-29T11:02:14.320Z,3.07
2022-12-29T11:04:53.782Z,4.00
2022-12-29T11:07:26.995Z,4.37
2022-12-29T11:09:55.176Z,5.07
2022-12-29T11:12:27.804Z,5.60
2022-12-29T11:15:15.527Z,3.33
2022-12-29T11:17:47.689Z,7.33
2022-12-29T11:20:30.029Z,5.50
2022-12-29T11:22:59.085Z,4.73
2022-12-29T11:25:26.572Z,8.30
2022-12-29T11:27:58.369Z,3.40
2022-12-29T11:30:27.508Z,5.57
2022-12-29T11:32:56.178Z,6.47
2022-12-29T11:35:37.500Z,5.90
2022-12-29T11:38:20.621Z,6.63
2022-12-29T11:40:48.374Z,5.97
2022-12-29T11:43:23.761Z,5.60
2022-12-29T11:45:54.043Z,10.23
2022-12-29T11:48:23.139Z,2.60
2022-12-29T11:50:53.198Z,4.27
2022-12-29T11:53:25.228Z,6.77
2022-12-29T11:56:03.227Z,6.47
2022-12-29T11:58:33.332Z,5.00
2022-12-29T12:01:03.659Z,5.47
2022-12-29T12:03:32.753Z,3.80
2022-12-29T12:06:02.878Z,6.07
2022-12-29T12:08:38.018Z,4.43
2022-12-29T12:11:08.933Z,6.50
2022-12-29T12:13:41.285Z,5.03
2022-12-29T12:16:14.796Z,5.13
2022-12-29T12:18:48.192Z,6.53
2022-12-29T12:21:21.012Z,3.50
2022-12-29T12:24:04.040Z,5.07
2022-12-29T12:26:34.554Z,5.70
2022-12-29T12:29:06.920Z,8.63
2022-12-29T12:31:44.118Z,3.63
2022-12-29T12:41:01.761Z,6.80
2022-12-29T12:43:42.756Z,4.33
2022-12-29T12:46:21.676Z,4.43
2022-12-29T12:49:01.860Z,5.03
2022-12-29T12:51:38.719Z,7.60
2022-12-29T12:54:18.710Z,3.50
2022-12-29T12:56:55.819Z,4.23
2022-12-29T12:59:37.383Z,4.80
2022-12-29T13:02:18.077Z,5.93
2022-12-29T13:04:58.469Z,4.83
2022-12-29T13:07:35.596Z,4.43
2022-12-29T13:10:23.121Z,4.87
2022-12-29T13:12:58.604Z,6.23
2022-12-29T13:15:38.838Z,5.53
2022-12-29T13:18:09.530Z,5.43
2022-12-29T13:20:41.463Z,2.87
2022-12-29T13:23:15.000Z,5.50
2022-12-29T13:25:47.027Z,6.47
2022-12-29T13:28:21.518Z,5.57
2022-12-29T13:30:55.757Z,5.50
2022-12-29T13:33:26.363Z,6.37
2022-12-29T13:35:58.327Z,5.20
2022-12-29T13:38:28.729Z,6.63
2022-12-29T13:40:59.411Z,3.93
2022-12-29T13:43:29.622Z,4.43
2022-12-29T13:46:01.468Z,5.63
2022-12-29T13:48:36.705Z,3.33
2022-12-29T13:51:04.961Z,4.97
2022-12-29T13:53:36.876Z,4.07
2022-12-29T13:56:08.144Z,4.10
2022-12-29T13:58:45.127Z,4.53
2022-12-29T14:01:19.016Z,4.23
2022-12-29T14:03:50.363Z,4.70
2022-12-29T14:06:24.811Z,5.33
2022-12-29T14:08:54.387Z,4.67
2022-12-29T14:11:25.303Z,5.50
2022-12-29T14:13:54.528Z,4.20
2022-12-29T14:16:31.116Z,4.07
2022-12-29T14:19:06.372Z,5.13
2022-12-29T14:21:34.430Z,3.87
2022-12-29T14:24:39.837Z,4.00
2022-12-29T14:27:47.017Z,4.20
2022-12-29T14:30:59.267Z,6.47
2022-12-29T14:33:33.111Z,6.80
2022-12-29T15:01:48.429Z,8.37
2022-12-29T15:04:19.311Z,8.03
2022-12-29T15:06:49.174Z,8.33
2022-12-29T15:09:27.068Z,5.77
2022-12-29T15:11:59.337Z,6.57
2022-12-29T15:14:32.500Z,4.00
2022-12-29T15:17:01.683Z,6.17
2022-12-29T15:19:29.915Z,6.20
2022-12-29T15:21:58.138Z,10.23
2022-12-29T15:24:25.904Z,7.17
2022-12-29T15:26:55.537Z,7.00
2022-12-29T15:29:32.824Z,12.57
2022-12-29T15:32:03.491Z,4.53
2022-12-29T15:34:32.247Z,8.10
2022-12-29T15:37:00.532Z,7.23
2022-12-29T15:39:30.766Z,7.47
2022-12-29T15:42:01.255Z,4.23
2022-12-29T15:44:32.136Z,5.47
2022-12-29T15:47:00.009Z,4.83
2022-12-29T15:49:32.237Z,4.33
2022-12-29T15:52:00.476Z,5.83
2022-12-29T15:54:31.694Z,5.57
2022-12-29T15:56:59.312Z,4.70
2022-12-29T15:59:29.457Z,4.70
2022-12-29T16:01:58.194Z,7.00
2022-12-29T16:04:31.468Z,5.67
2022-12-29T16:07:01.288Z,6.57
2022-12-29T16:09:34.159Z,9.83
2022-12-29T16:12:04.580Z,8.97
2022-12-29T16:14:34.673Z,4.97
2022-12-29T16:17:04.802Z,5.47
2022-12-29T16:19:37.018Z,3.37
2022-12-29T16:22:05.824Z,4.83
2022-12-29T16:24:34.625Z,9.33
2022-12-29T16:27:08.586Z,6.17
2022-12-29T16:29:36.818Z,7.33
2022-12-29T16:32:04.535Z,5.20
2022-12-29T16:34:33.691Z,7.83
2022-12-29T16:37:04.454Z,6.13
2022-12-29T16:39:35.566Z,6.10
2022-12-29T16:42:03.685Z,7.30
2022-12-29T16:44:32.287Z,7.83
2022-12-29T16:47:19.665Z,6.20
2022-12-29T16:49:52.800Z,6.70
2022-12-29T16:52:24.938Z,4.87
2022-12-29T16:54:55.687Z,7.57
2022-12-29T16:57:28.386Z,4.43
2022-12-29T16:59:58.122Z,4.13
2022-12-29T17:02:28.143Z,6.10
2022-12-29T17:04:55.793Z,6.07
2022-12-29T17:07:26.124Z,6.33
2022-12-29T17:09:55.007Z,8.00
2022-12-29T17:12:24.788Z,4.50
2022-12-29T17:14:54.702Z,6.90
2022-12-29T17:17:26.716Z,4.10
2022-12-29T17:19:56.456Z,4.63
2022-12-29T17:22:27.155Z,4.47
2022-12-29T17:24:54.907Z,9.47
2022-12-29T17:27:26.934Z,6.10
2022-12-29T17:29:57.164Z,4.80
2022-12-29T17:32:26.686Z,3.90
2022-12-29T17:34:54.149Z,4.40
2022-12-29T17:37:37.225Z,3.87
2022-12-29T17:40:07.425Z,6.27
2022-12-29T17:42:36.973Z,3.47
2022-12-29T17:45:05.119Z,4.17
2022-12-29T17:47:32.627Z,8.37
2022-12-29T17:50:01.083Z,3.70
2022-12-29T17:52:28.560Z,5.03
2022-12-29T17:54:57.430Z,5.67
2022-12-29T17:57:24.869Z,3.73
2022-12-29T17:59:52.325Z,6.77
2022-12-29T18:02:27.558Z,4.67
2022-12-29T18:04:55.236Z,6.63
2022-12-29T18:07:23.059Z,3.97
2022-12-29T18:09:50.620Z,4.87
2022-12-29T18:12:38.967Z,5.20
2022-12-29T18:15:07.587Z,5.03
2022-12-29T18:17:35.073Z,6.83
2022-12-29T18:20:02.602Z,4.40
2022-12-29T18:22:30.267Z,4.53
2022-12-29T18:24:57.744Z,9.43
2022-12-29T18:33:32.629Z,8.87
2022-12-29T18:36:02.240Z,8.17
2022-12-29T18:38:30.595Z,8.97
2022-12-29T18:40:59.444Z,7.50
2022-12-29T18:43:27.445Z,4.97
2022-12-29T18:45:55.346Z,2.77
2022-12-29T18:48:24.990Z,5.27
2022-12-29T18:53:54.279Z,5.90
2022-12-29T18:56:23.301Z,5.63
2022-12-29T19:01:40.238Z,2.50
2022-12-29T21:01:29.186Z,6.43
2022-12-29T23:06:17.121Z,9.60
2022-12-29T23:33:09.981Z,9.77
2022-12-29T23:35:38.019Z,10.90
